Terminal Aerodrome Forecast
Issued by NWS Twin Cities, MN

Home | Current Version | Previous Version | Graphics & Text | Print | Product List | Glossary On
Versions: 1 2 3 4 5 6 7 8 9 10 11 12 13 14 15 16
000
FTUS43 KMPX 162300
TAFEAU
TAF
KEAU 162322Z 1700/1724 VRB03KT P6SM SKC
     FM170900 00000KT P6SM BKN060
     FM171800 34006KT P6SM FEW060=

USA.gov is the U.S. government's official web portal to all federal, state and local government web resources and services.